Time;durP1;ratioP1;P1;durP2;ratioP2;P2;SDS_P1;SDS_P2;PMS_P1;PMS_P2;Temp;Humidity;BMP_temperature;BMP_pressure;BME280_temperature;BME280_humidity;BME280_pressure;Samples;Min_cycle;Max_cycle;Signal;HPM_P1;HPM_P2
2022/09/06 00:00:16;;;;;;;8.73;4.10;;;;;;;19.20;100.00;101378.59;4974154;28;20126;-68
2022/09/06 00:02:43;;;;;;;9.93;4.30;;;;;;;19.22;100.00;101384.66;4973142;28;20031;-69
2022/09/06 00:05:09;;;;;;;6.00;3.70;;;;;;;19.19;100.00;101444.72;4975480;28;20035;-70
2022/09/06 00:07:35;;;;;;;5.88;3.60;;;;;;;19.01;100.00;101449.59;4990130;28;20030;-69
2022/09/06 00:10:01;;;;;;;6.38;4.32;;;;;;;18.94;100.00;101452.56;4960523;28;20038;-68
2022/09/06 00:12:26;;;;;;;8.40;4.10;;;;;;;18.91;100.00;101469.56;4975751;28;20470;-69
2022/09/06 00:14:52;;;;;;;5.80;4.25;;;;;;;18.89;100.00;101493.69;4975799;28;20146;-68
2022/09/06 00:17:17;;;;;;;5.95;3.80;;;;;;;18.87;100.00;101487.66;4988228;28;20104;-68
2022/09/06 00:19:43;;;;;;;7.55;4.32;;;;;;;18.86;100.00;101496.97;4976933;28;20498;-69
2022/09/06 00:22:08;;;;;;;5.60;4.45;;;;;;;18.87;100.00;101509.59;4975469;28;20497;-69
2022/09/06 00:24:35;;;;;;;7.13;4.47;;;;;;;18.83;100.00;101519.41;4990727;28;20049;-70
2022/09/06 00:27:01;;;;;;;7.57;4.70;;;;;;;18.84;100.00;101512.81;4986956;28;20035;-69
2022/09/06 00:29:26;;;;;;;8.55;4.95;;;;;;;18.77;100.00;101509.47;4979066;28;20389;-69
2022/09/06 00:31:52;;;;;;;7.20;4.63;;;;;;;18.81;100.00;101515.25;4975445;28;20027;-69
2022/09/06 00:34:17;;;;;;;6.25;4.30;;;;;;;18.80;100.00;101519.91;4975371;28;20073;-69
2022/09/06 00:36:42;;;;;;;7.97;4.25;;;;;;;18.78;100.00;101516.59;4981966;28;20470;-69
2022/09/06 00:39:07;;;;;;;6.00;4.40;;;;;;;18.85;100.00;101505.41;4975367;28;20066;-69
2022/09/06 00:41:33;;;;;;;10.07;4.18;;;;;;;18.90;100.00;101498.09;4975577;28;20429;-69
2022/09/06 00:43:58;;;;;;;5.97;4.97;;;;;;;18.89;100.00;101499.16;4973660;28;20055;-70
2022/09/06 00:46:28;;;;;;;7.82;4.60;;;;;;;19.01;100.00;101490.75;4980628;28;20042;-69
2022/09/06 00:49:05;;;;;;;6.35;4.40;;;;;;;19.05;100.00;101480.03;4974166;28;20114;-69
2022/09/06 00:51:33;;;;;;;7.72;4.40;;;;;;;19.06;100.00;101478.97;4975666;28;20026;-69
2022/09/06 00:54:02;;;;;;;6.85;4.30;;;;;;;19.05;100.00;101471.81;4973861;28;20394;-69
2022/09/06 00:56:28;;;;;;;6.10;4.28;;;;;;;19.08;100.00;101471.28;4980324;28;20634;-69
2022/09/06 00:58:53;;;;;;;7.35;4.70;;;;;;;19.05;100.00;101471.81;4990645;28;20039;-69
2022/09/06 01:01:19;;;;;;;6.82;4.45;;;;;;;19.07;100.00;101456.75;4972684;28;20038;-69
2022/09/06 01:03:44;;;;;;;5.10;4.00;;;;;;;19.03;100.00;101454.81;4992847;28;20078;-68
2022/09/06 01:06:30;;;;;;;6.68;4.60;;;;;;;19.11;100.00;101446.06;4996784;28;20030;-69
2022/09/06 01:09:11;;;;;;;6.00;4.40;;;;;;;19.13;100.00;101447.44;4957852;28;20511;-69
2022/09/06 01:12:13;;;;;;;5.28;4.15;;;;;;;19.16;100.00;101448.84;4955801;28;20039;-69
2022/09/06 01:15:09;;;;;;;4.93;4.28;;;;;;;19.13;100.00;101441.97;4955537;28;20486;-69
2022/09/06 01:17:54;;;;;;;8.55;4.28;;;;;;;19.19;100.00;101431.84;4976496;28;20081;-69
2022/09/06 01:20:43;;;;;;;7.13;4.43;;;;;;;19.16;100.00;101424.16;4978923;28;20030;-69
2022/09/06 01:23:30;;;;;;;8.45;4.82;;;;;;;18.97;100.00;101403.78;4992542;28;20130;-69
2022/09/06 01:26:05;;;;;;;5.63;4.72;;;;;;;18.93;100.00;101385.13;4992232;28;20030;-69
2022/09/06 01:28:41;;;;;;;5.88;4.70;;;;;;;18.87;100.00;101352.44;4978189;28;20494;-69
2022/09/06 01:31:18;;;;;;;7.32;4.78;;;;;;;18.87;100.00;101346.97;4988754;28;20023;-69
2022/09/06 01:34:18;;;;;;;5.13;4.45;;;;;;;18.89;100.00;101331.91;4989341;28;20035;-69
2022/09/06 01:36:50;;;;;;;5.60;4.65;;;;;;;18.82;100.00;101320.31;4980224;28;20387;-68
2022/09/06 01:39:36;;;;;;;7.15;4.82;;;;;;;18.81;100.00;101313.19;4989199;28;20443;-69
2022/09/06 01:42:07;;;;;;;6.55;4.97;;;;;;;18.75;100.00;101311.50;4973426;28;20043;-71
2022/09/06 01:44:36;;;;;;;6.15;4.82;;;;;;;18.77;100.00;101295.63;4974166;28;20042;-69
2022/09/06 01:47:21;;;;;;;8.98;4.60;;;;;;;18.68;100.00;101280.81;4977928;28;20095;-69
2022/09/06 01:50:04;;;;;;;7.22;4.70;;;;;;;18.72;100.00;101271.78;4974068;28;20026;-69
2022/09/06 01:52:40;;;;;;;5.28;4.13;;;;;;;18.71;100.00;101269.31;4973808;28;20026;-69
2022/09/06 01:55:28;;;;;;;8.75;4.20;;;;;;;18.71;100.00;101250.09;4973886;28;20033;-69
2022/09/06 01:57:56;;;;;;;7.28;4.47;;;;;;;18.62;100.00;101238.03;4979571;28;20057;-69
2022/09/06 02:00:22;;;;;;;7.47;4.05;;;;;;;18.60;100.00;101249.25;4973163;28;20439;-70
2022/09/06 02:03:18;;;;;;;4.85;3.83;;;;;;;18.61;100.00;101259.13;4971867;28;20086;-69
2022/09/06 02:05:49;;;;;;;7.30;4.38;;;;;;;18.59;100.00;101319.69;4973882;28;20482;-69
2022/09/06 02:08:23;;;;;;;7.63;4.78;;;;;;;18.51;100.00;101342.13;4969630;28;20069;-69
2022/09/06 02:11:09;;;;;;;5.75;4.72;;;;;;;18.45;100.00;101284.81;4970476;28;20050;-69
2022/09/06 02:13:56;;;;;;;5.07;4.30;;;;;;;18.45;100.00;101298.50;4973372;28;20080;-69
2022/09/06 02:16:25;;;;;;;6.32;4.72;;;;;;;18.45;100.00;101293.03;4976848;28;20441;-69
2022/09/06 02:19:02;;;;;;;7.10;4.72;;;;;;;18.52;100.00;101293.63;4975904;28;20114;-69
2022/09/06 02:21:33;;;;;;;5.00;4.47;;;;;;;18.55;100.00;101288.41;4973498;28;20081;-69
2022/09/06 02:24:03;;;;;;;8.05;4.68;;;;;;;18.49;100.00;101300.44;4973924;28;20533;-69
2022/09/06 02:26:33;;;;;;;5.38;4.53;;;;;;;18.51;100.00;101297.44;4981615;28;20034;-69
2022/09/06 02:28:59;;;;;;;8.73;4.80;;;;;;;18.51;100.00;101292.81;4979177;28;20045;-68
2022/09/06 02:31:29;;;;;;;10.52;4.72;;;;;;;18.57;100.00;101294.47;4977742;28;20026;-69
2022/09/06 02:33:55;;;;;;;6.32;4.40;;;;;;;18.57;100.00;101291.72;4976355;28;20034;-69
2022/09/06 02:36:20;;;;;;;6.55;4.63;;;;;;;18.53;100.00;101281.56;4979069;28;20050;-69
2022/09/06 02:38:47;;;;;;;5.70;4.72;;;;;;;18.50;100.00;101277.44;4976441;28;20035;-69
2022/09/06 02:41:15;;;;;;;5.32;4.82;;;;;;;18.54;100.00;101280.44;4957951;28;20039;-69
2022/09/06 02:43:42;;;;;;;5.85;4.80;;;;;;;18.43;100.00;101268.63;4957876;28;20451;-68
2022/09/06 02:46:07;;;;;;;6.90;4.95;;;;;;;18.51;100.00;101276.34;4959704;28;20110;-70
2022/09/06 02:48:32;;;;;;;7.32;5.07;;;;;;;18.48;100.00;101284.28;4982201;28;20137;-69
2022/09/06 02:51:01;;;;;;;7.65;5.20;;;;;;;18.41;100.00;101284.53;4977686;28;20101;-69
2022/09/06 02:53:27;;;;;;;5.30;4.80;;;;;;;18.47;100.00;101290.88;4977217;28;20493;-69
2022/09/06 02:55:52;;;;;;;6.03;5.47;;;;;;;18.48;100.00;101293.34;4977030;28;20039;-69
2022/09/06 02:58:17;;;;;;;6.55;5.47;;;;;;;18.46;100.00;101290.03;4982081;28;20031;-68
2022/09/06 03:00:43;;;;;;;5.97;5.28;;;;;;;18.51;100.00;101278.25;4975126;28;20269;-69
2022/09/06 03:03:08;;;;;;;5.82;5.10;;;;;;;18.50;100.00;101293.88;4976678;28;20498;-69
2022/09/06 03:05:33;;;;;;;7.15;5.18;;;;;;;18.49;100.00;101288.66;4977237;28;20110;-69
2022/09/06 03:07:59;;;;;;;6.40;5.32;;;;;;;18.52;100.00;101297.16;4975454;28;20029;-69
2022/09/06 03:10:25;;;;;;;7.93;5.47;;;;;;;18.50;100.00;101293.88;4957730;28;20434;-69
2022/09/06 03:12:51;;;;;;;8.02;5.40;;;;;;;18.53;100.00;101290.59;4957687;28;20042;-70
2022/09/06 03:15:16;;;;;;;6.20;5.35;;;;;;;18.54;100.00;101294.16;4957636;28;20035;-69
2022/09/06 03:17:42;;;;;;;7.55;4.93;;;;;;;18.47;100.00;101294.41;4977283;28;20038;-69
2022/09/06 03:20:09;;;;;;;7.80;4.88;;;;;;;18.47;100.00;101288.13;4977530;28;20041;-69
2022/09/06 03:22:39;;;;;;;9.10;4.97;;;;;;;18.43;100.00;101290.56;4991453;28;20038;-69
2022/09/06 03:25:06;;;;;;;6.18;5.13;;;;;;;18.43;100.00;101296.03;4992083;28;20030;-69
2022/09/06 03:27:31;;;;;;;5.20;4.68;;;;;;;18.46;100.00;101303.72;5006471;28;20033;-70
2022/09/06 03:29:57;;;;;;;5.57;4.80;;;;;;;18.49;100.00;101302.38;4976567;28;20031;-69
2022/09/06 03:32:22;;;;;;;5.40;4.93;;;;;;;18.45;100.00;101293.88;4976441;28;20031;-69
2022/09/06 03:34:47;;;;;;;6.30;5.05;;;;;;;18.42;100.00;101291.66;4989142;28;20190;-69
2022/09/06 03:37:13;;;;;;;7.25;5.10;;;;;;;18.43;100.00;101296.03;4993145;28;20033;-69
2022/09/06 03:39:38;;;;;;;5.95;4.80;;;;;;;18.42;100.00;101288.94;4976717;28;20039;-69
2022/09/06 03:42:03;;;;;;;6.75;4.85;;;;;;;18.40;100.00;101286.44;4976381;28;20031;-69
2022/09/06 03:44:29;;;;;;;5.28;4.88;;;;;;;18.30;100.00;101280.91;4985758;28;20058;-69
2022/09/06 03:46:54;;;;;;;6.40;4.72;;;;;;;18.33;100.00;101283.13;5011190;28;20036;-69
2022/09/06 03:49:19;;;;;;;5.50;4.80;;;;;;;18.35;100.00;101291.06;4977340;28;20035;-70
2022/09/06 03:51:45;;;;;;;5.65;4.88;;;;;;;18.34;100.00;101292.16;4976940;28;20066;-69
2022/09/06 03:54:10;;;;;;;7.53;5.18;;;;;;;18.23;100.00;101289.34;5006889;28;20053;-69
2022/09/06 03:56:35;;;;;;;7.88;5.20;;;;;;;18.29;100.00;101289.41;5007528;28;20054;-69
2022/09/06 03:59:01;;;;;;;5.68;4.88;;;;;;;18.28;100.00;101293.22;4980164;28;20482;-69
2022/09/06 04:01:26;;;;;;;6.30;5.00;;;;;;;18.29;100.00;101305.84;4974706;28;20035;-69
2022/09/06 04:03:51;;;;;;;5.95;4.88;;;;;;;18.23;100.00;101296.75;4980670;28;20092;-69
2022/09/06 04:06:17;;;;;;;6.18;5.30;;;;;;;18.19;100.00;101295.63;4995388;28;20022;-69
2022/09/06 04:08:42;;;;;;;5.40;4.90;;;;;;;18.18;100.00;101304.97;4969715;28;20035;-70
2022/09/06 04:11:07;;;;;;;5.72;5.13;;;;;;;18.11;100.00;101298.88;4956705;28;20027;-69
2022/09/06 04:13:33;;;;;;;6.15;5.32;;;;;;;18.08;100.00;101311.19;4961104;28;20046;-68
2022/09/06 04:15:59;;;;;;;6.53;5.32;;;;;;;18.00;100.00;101308.97;4995333;28;20045;-69
2022/09/06 04:18:24;;;;;;;6.45;5.50;;;;;;;17.95;100.00;101314.38;4983341;28;20030;-69
2022/09/06 04:20:52;;;;;;;7.25;5.35;;;;;;;17.98;100.00;101313.84;4975696;28;20045;-68
2022/09/06 04:23:19;;;;;;;6.10;4.82;;;;;;;17.96;100.00;101314.13;4975009;28;20037;-70
2022/09/06 04:25:46;;;;;;;6.82;5.78;;;;;;;17.93;100.00;101328.34;4995206;28;20038;-70
2022/09/06 04:28:11;;;;;;;6.20;5.53;;;;;;;17.93;100.00;101322.03;4985481;28;20054;-69
2022/09/06 04:30:37;;;;;;;9.60;6.10;;;;;;;17.93;100.00;101322.88;4975884;28;20042;-69
2022/09/06 04:33:02;;;;;;;6.75;5.72;;;;;;;17.88;100.00;101322.81;4975292;28;20034;-70
2022/09/06 04:35:27;;;;;;;6.60;6.00;;;;;;;17.91;100.00;101318.75;4991826;28;20043;-69
2022/09/06 04:37:52;;;;;;;7.15;6.28;;;;;;;17.84;100.00;101322.50;4988162;28;20026;-69
2022/09/06 04:40:18;;;;;;;8.25;5.97;;;;;;;17.84;100.00;101327.16;4974888;28;20532;-70
2022/09/06 04:42:43;;;;;;;7.50;6.55;;;;;;;17.74;100.00;101322.44;4975229;28;20082;-69
2022/09/06 04:45:09;;;;;;;7.07;6.35;;;;;;;17.74;100.00;101321.59;4988126;28;20030;-69
2022/09/06 04:47:34;;;;;;;8.02;6.30;;;;;;;17.71;100.00;101321.03;4989983;28;20053;-69
2022/09/06 04:49:59;;;;;;;7.05;5.85;;;;;;;17.73;100.00;101320.78;4982186;28;20035;-69
2022/09/06 04:52:25;;;;;;;8.32;6.57;;;;;;;17.71;100.00;101329.25;4955561;28;20064;-70
2022/09/06 04:54:50;;;;;;;9.23;6.32;;;;;;;17.69;100.00;101328.69;4955914;28;20042;-70
2022/09/06 04:57:15;;;;;;;7.45;6.53;;;;;;;17.74;100.00;101321.59;4955534;28;20177;-69
2022/09/06 04:59:40;;;;;;;7.10;6.40;;;;;;;17.67;100.00;101322.63;4993391;28;20030;-70
2022/09/06 05:02:06;;;;;;;7.20;6.43;;;;;;;17.66;100.00;101326.47;4991757;28;20031;-69
2022/09/06 05:04:31;;;;;;;8.40;6.60;;;;;;;17.70;100.00;101321.28;4994159;28;20534;-69
2022/09/06 05:07:01;;;;;;;8.70;6.88;;;;;;;17.65;100.00;101318.53;4994108;28;20038;-69
2022/09/06 05:09:27;;;;;;;8.38;6.78;;;;;;;17.59;100.00;101314.06;4963480;28;20089;-69
2022/09/06 05:11:52;;;;;;;7.05;6.32;;;;;;;17.64;100.00;101305.94;4991545;28;20034;-69
2022/09/06 05:14:17;;;;;;;9.70;7.13;;;;;;;17.60;100.00;101310.25;4993931;28;20121;-70
2022/09/06 05:16:44;;;;;;;7.88;6.80;;;;;;;17.54;100.00;101310.22;4993919;28;20042;-69
2022/09/06 05:19:09;;;;;;;9.27;6.60;;;;;;;17.51;100.00;101310.75;4977549;28;20458;-69
2022/09/06 05:21:34;;;;;;;7.85;7.03;;;;;;;17.55;100.00;101302.84;4970850;28;20118;-69
2022/09/06 05:23:59;;;;;;;9.43;7.20;;;;;;;17.57;100.00;101317.06;4955592;28;20027;-70
2022/09/06 05:26:25;;;;;;;11.57;7.07;;;;;;;17.54;100.00;101302.03;4957224;28;20612;-69
2022/09/06 05:28:50;;;;;;;10.75;7.53;;;;;;;17.54;100.00;101306.66;4986665;28;20035;-69
2022/09/06 05:31:27;;;;;;;7.80;6.65;;;;;;;17.55;100.00;101316.53;4990787;28;20065;-69
2022/09/06 05:33:53;;;;;;;9.95;6.88;;;;;;;17.61;100.00;101317.41;4993477;28;20433;-69
2022/09/06 05:36:18;;;;;;;9.27;7.20;;;;;;;17.63;100.00;101321.50;4993761;28;20030;-70
2022/09/06 05:38:43;;;;;;;11.18;7.45;;;;;;;17.58;100.00;101323.38;4981852;28;20057;-69
2022/09/06 05:41:09;;;;;;;9.70;7.15;;;;;;;17.67;100.00;101319.09;4988703;28;20034;-69
2022/09/06 05:43:34;;;;;;;12.57;7.82;;;;;;;17.63;100.00;101331.63;4993640;28;20431;-71
2022/09/06 05:45:59;;;;;;;9.23;6.95;;;;;;;17.68;100.00;101331.69;4993579;28;20022;-69
2022/09/06 05:48:25;;;;;;;10.68;7.30;;;;;;;17.68;100.00;101337.16;4980466;28;20117;-69
2022/09/06 05:51:05;;;;;;;7.75;6.93;;;;;;;17.71;100.00;101317.47;4972530;28;20022;-69
2022/09/06 05:53:39;;;;;;;8.02;6.43;;;;;;;17.76;100.00;101325.72;4973983;28;20478;-69
2022/09/06 05:56:05;;;;;;;8.73;6.75;;;;;;;17.75;100.00;101324.06;4974147;28;20122;-69
2022/09/06 05:58:30;;;;;;;8.93;6.80;;;;;;;17.78;100.00;101320.81;4972636;28;20030;-69
2022/09/06 06:01:04;;;;;;;11.23;7.00;;;;;;;17.81;100.00;101325.75;4966679;28;20077;-71
2022/09/06 06:03:29;;;;;;;9.23;7.03;;;;;;;17.81;100.00;101325.75;4974175;28;20045;-70
2022/09/06 06:05:54;;;;;;;8.90;6.90;;;;;;;17.88;100.00;101326.34;4992797;28;20030;-71
2022/09/06 06:08:20;;;;;;;11.02;6.65;;;;;;;17.89;100.00;101325.31;4977849;28;20493;-69
2022/09/06 06:10:45;;;;;;;8.48;6.78;;;;;;;17.91;100.00;101329.72;4954439;28;20028;-72
2022/09/06 06:13:10;;;;;;;11.18;6.22;;;;;;;17.97;100.00;101326.72;4953248;28;20035;-68
2022/09/06 06:15:35;;;;;;;9.13;7.28;;;;;;;17.96;100.00;101325.06;4991374;28;20039;-70
2022/09/06 06:18:01;;;;;;;8.10;6.32;;;;;;;18.02;100.00;101325.94;4991048;28;20027;-71
2022/09/06 06:20:26;;;;;;;8.20;6.07;;;;;;;18.02;100.00;101334.97;4983455;28;20039;-69
2022/09/06 06:22:51;;;;;;;12.60;6.70;;;;;;;18.04;100.00;101318.28;4974240;28;20023;-71
2022/09/06 06:25:21;;;;;;;10.82;6.35;;;;;;;18.10;100.00;101325.47;4973669;28;20402;-71
2022/09/06 06:27:46;;;;;;;9.65;6.22;;;;;;;18.12;100.00;101320.53;4987702;28;20425;-69
2022/09/06 06:30:12;;;;;;;12.65;6.50;;;;;;;18.18;100.00;101310.44;4993215;28;20031;-69
2022/09/06 06:32:39;;;;;;;11.43;6.55;;;;;;;18.22;100.00;101323.34;4993034;28;20034;-67
2022/09/06 06:35:05;;;;;;;21.75;7.10;;;;;;;18.29;100.00;101316.81;4976032;28;20035;-68
2022/09/06 06:37:32;;;;;;;9.77;6.38;;;;;;;18.31;100.00;101311.88;4984302;28;20040;-69
2022/09/06 06:39:57;;;;;;;7.70;6.13;;;;;;;18.33;100.00;101309.72;4992062;28;20390;-67
2022/09/06 06:42:23;;;;;;;10.98;6.78;;;;;;;18.36;100.00;101317.41;4992995;28;20042;-66
2022/09/06 06:44:48;;;;;;;10.13;6.10;;;;;;;18.50;100.00;101317.72;5008314;28;20239;-69
2022/09/06 06:47:13;;;;;;;8.48;6.40;;;;;;;18.48;100.00;101314.41;5012970;28;20050;-66
2022/09/06 06:49:39;;;;;;;9.80;6.03;;;;;;;18.55;100.00;101310.34;4990577;28;20041;-70
2022/09/06 06:52:04;;;;;;;13.27;6.05;;;;;;;18.60;100.00;101306.81;4993241;28;20107;-68
2022/09/06 06:54:29;;;;;;;10.32;5.70;;;;;;;18.67;100.00;101306.56;4992584;28;20034;-67
2022/09/06 06:56:54;;;;;;;8.05;5.80;;;;;;;18.67;100.00;101304.63;4991457;28;20424;-71
2022/09/06 06:59:20;;;;;;;10.52;5.43;;;;;;;18.73;100.00;101310.97;4992897;28;20086;-68
2022/09/06 07:01:45;;;;;;;7.60;5.05;;;;;;;18.76;100.00;101315.91;4987161;28;20042;-67
2022/09/06 07:04:11;;;;;;;5.80;4.72;;;;;;;18.80;100.00;101311.53;4992570;28;20469;-70
2022/09/06 07:07:05;;;;;;;6.15;5.13;;;;;;;18.89;100.00;101311.88;4990373;28;20413;-69
2022/09/06 07:09:30;;;;;;;6.47;4.38;;;;;;;18.87;100.00;101306.66;4995878;28;20046;-68
2022/09/06 07:11:56;;;;;;;7.25;4.32;;;;;;;18.93;100.00;101313.81;5008940;28;20038;-67
2022/09/06 07:14:21;;;;;;;4.85;4.30;;;;;;;18.96;100.00;101301.47;4994846;28;20037;-69
2022/09/06 07:16:46;;;;;;;4.68;3.95;;;;;;;19.06;100.00;101312.47;4986306;28;20494;-70
2022/09/06 07:19:12;;;;;;;8.13;3.70;;;;;;;19.15;100.00;101306.47;4957632;28;20122;-68
2022/09/06 07:21:37;;;;;;;7.28;4.22;;;;;;;19.19;100.00;101313.88;4986699;28;20035;-68
2022/09/06 07:24:06;;;;;;;5.65;4.05;;;;;;;19.21;100.00;101314.41;4977272;28;20035;-69
2022/09/06 07:26:32;;;;;;;3.97;3.47;;;;;;;19.29;100.00;101316.63;4975480;28;20026;-67
2022/09/06 07:29:00;;;;;;;6.57;3.75;;;;;;;19.38;100.00;101318.81;4976878;28;20042;-68
2022/09/06 07:31:27;;;;;;;6.03;3.78;;;;;;;19.39;100.00;101317.75;4988576;28;20121;-70
2022/09/06 07:33:52;;;;;;;6.18;3.80;;;;;;;19.43;100.00;101307.84;4994378;28;20467;-69
2022/09/06 07:36:18;;;;;;;4.25;3.35;;;;;;;19.48;100.00;101300.44;4975707;28;20050;-69
2022/09/06 07:38:48;;;;;;;6.65;3.38;;;;;;;19.57;100.00;101308.16;4976435;28;20031;-73
2022/09/06 07:41:13;;;;;;;3.78;3.10;;;;;;;19.62;100.00;101319.94;4985699;28;20184;-71
2022/09/06 07:43:39;;;;;;;7.45;3.10;;;;;;;19.66;100.00;101312.78;4995429;28;20129;-72
2022/09/06 07:46:05;;;;;;;5.80;3.20;;;;;;;19.77;100.00;101318.28;4995585;28;20036;-70
2022/09/06 07:48:33;;;;;;;4.18;2.70;;;;;;;19.86;100.00;101316.66;4995590;28;20034;-74
2022/09/06 07:51:10;;;;;;;7.43;2.95;;;;;;;19.97;100.00;101322.97;4993765;28;20030;-70
2022/09/06 07:53:37;;;;;;;5.38;2.80;;;;;;;19.99;100.00;101307.84;4990750;28;20165;-71
2022/09/06 07:56:05;;;;;;;3.78;2.75;;;;;;;20.06;100.00;101310.31;4976289;28;20117;-69
2022/09/06 07:58:31;;;;;;;4.93;2.90;;;;;;;20.12;100.00;101300.13;4973546;28;20543;-70
2022/09/06 08:01:30;;;;;;;5.97;2.67;;;;;;;20.18;100.00;101296.28;4974259;28;20030;-71
2022/09/06 08:03:59;;;;;;;6.10;2.95;;;;;;;20.24;98.96;101297.91;4956174;28;20562;-71
2022/09/06 08:06:27;;;;;;;5.25;2.50;;;;;;;20.32;94.31;101291.84;4985762;28;20031;-70
2022/09/06 08:08:53;;;;;;;4.03;2.38;;;;;;;20.36;92.15;101298.41;4982469;28;20033;-70
2022/09/06 08:11:18;;;;;;;2.78;2.10;;;;;;;20.43;93.29;101297.31;4995453;28;20027;-71
2022/09/06 08:13:47;;;;;;;3.83;2.55;;;;;;;20.43;99.25;101302.81;4981081;28;20035;-72
2022/09/06 08:16:12;;;;;;;4.55;2.50;;;;;;;20.45;97.26;101303.34;4971321;28;20414;-72
2022/09/06 08:18:38;;;;;;;3.92;2.60;;;;;;;20.44;92.83;101294.28;4966242;28;20032;-72
2022/09/06 08:21:11;;;;;;;5.80;2.50;;;;;;;20.46;97.19;101296.75;4966475;28;20062;-69
2022/09/06 08:23:41;;;;;;;5.43;2.30;;;;;;;20.53;89.14;101300.84;4973775;28;20062;-68
2022/09/06 08:26:06;;;;;;;3.72;2.30;;;;;;;20.56;89.18;101302.19;4976479;28;20456;-68
2022/09/06 08:28:32;;;;;;;7.00;2.28;;;;;;;20.50;95.52;101308.81;4956156;28;20086;-68
2022/09/06 08:31:08;;;;;;;6.30;2.13;;;;;;;20.52;93.25;101315.69;4971541;28;20090;-71
2022/09/06 08:33:33;;;;;;;4.60;2.45;;;;;;;20.56;87.77;101317.88;5006367;28;20031;-72
2022/09/06 08:35:59;;;;;;;3.33;2.03;;;;;;;20.60;88.86;101306.03;4972838;28;20037;-72
2022/09/06 08:38:26;;;;;;;3.08;2.20;;;;;;;20.71;92.35;101310.41;4978432;28;20026;-70
2022/09/06 08:40:53;;;;;;;3.00;2.30;;;;;;;20.80;87.96;101301.56;4989118;28;20042;-68
2022/09/06 08:43:21;;;;;;;3.58;2.20;;;;;;;20.89;94.01;101295.19;4994850;28;20433;-70
2022/09/06 08:45:50;;;;;;;2.72;2.20;;;;;;;21.00;87.23;101312.47;4975220;28;20029;-71
2022/09/06 08:48:16;;;;;;;9.05;2.50;;;;;;;21.03;87.68;101306.38;4994446;28;20026;-73
2022/09/06 08:50:51;;;;;;;4.60;2.70;;;;;;;21.07;82.48;101306.63;4987540;28;20027;-70
2022/09/06 08:53:18;;;;;;;4.50;2.40;;;;;;;21.14;86.55;101301.63;4964067;28;20061;-71
2022/09/06 08:56:12;;;;;;;6.07;2.60;;;;;;;21.20;84.70;101307.94;4974921;28;20035;-73
2022/09/06 08:59:01;;;;;;;4.40;2.65;;;;;;;21.29;84.73;101303.47;4973838;28;20073;-70
2022/09/06 09:01:36;;;;;;;3.63;2.30;;;;;;;21.32;85.73;101308.41;4972444;28;20050;-70
2022/09/06 09:04:03;;;;;;;5.25;2.50;;;;;;;21.31;78.92;101306.75;4980667;28;20041;-70
2022/09/06 09:06:31;;;;;;;4.63;2.30;;;;;;;21.38;80.61;101304.50;4977127;28;20292;-70
2022/09/06 09:09:05;;;;;;;3.85;2.40;;;;;;;21.44;82.88;101305.28;4977837;28;20062;-70
2022/09/06 09:11:32;;;;;;;3.90;2.42;;;;;;;21.47;80.17;101292.84;4980352;28;20035;-71
2022/09/06 09:14:44;;;;;;;4.72;2.70;;;;;;;21.51;86.39;101299.47;4975472;28;20038;-72
2022/09/06 09:17:21;;;;;;;4.63;2.40;;;;;;;21.57;81.69;101287.28;4967757;28;20039;-71
2022/09/06 09:19:47;;;;;;;5.30;2.38;;;;;;;21.63;79.91;101291.66;4954117;29;20027;-70
2022/09/06 09:22:16;;;;;;;8.43;2.55;;;;;;;21.63;78.36;101280.63;4991039;28;20080;-71
2022/09/06 09:24:42;;;;;;;3.13;2.30;;;;;;;21.70;81.05;101286.63;4994018;28;20589;-68
2022/09/06 09:27:10;;;;;;;3.72;2.00;;;;;;;21.74;79.21;101287.69;4976426;28;20561;-71
2022/09/06 09:29:53;;;;;;;6.63;2.50;;;;;;;21.80;80.26;101290.41;4990215;28;20062;-70
2022/09/06 09:32:32;;;;;;;4.50;2.42;;;;;;;21.85;77.60;101293.13;4974497;28;20120;-70
2022/09/06 09:35:28;;;;;;;6.10;2.50;;;;;;;21.90;79.07;101301.31;5009180;28;20098;-72
2022/09/06 09:38:11;;;;;;;4.40;2.53;;;;;;;21.94;78.77;101302.41;4990598;28;20504;-70
2022/09/06 09:40:40;;;;;;;6.15;2.50;;;;;;;21.98;80.22;101303.44;4994207;28;20126;-70
2022/09/06 09:43:15;;;;;;;2.42;2.15;;;;;;;22.06;78.37;101300.06;4993950;28;20262;-73
2022/09/06 09:45:42;;;;;;;6.97;2.67;;;;;;;22.06;75.46;101289.03;4993182;28;20030;-70
2022/09/06 09:48:19;;;;;;;4.95;2.50;;;;;;;22.13;78.41;101295.03;4981416;28;20046;-71
2022/09/06 09:50:44;;;;;;;3.35;2.58;;;;;;;22.18;78.05;101293.31;4972989;28;20028;-70
2022/09/06 09:53:14;;;;;;;5.55;2.60;;;;;;;22.20;78.22;101288.34;4988467;28;20497;-70
2022/09/06 09:55:40;;;;;;;3.47;2.30;;;;;;;22.25;78.67;101280.00;4992158;28;20038;-70
2022/09/06 09:58:16;;;;;;;6.43;2.50;;;;;;;22.32;78.23;101280.50;4993511;28;20038;-70
2022/09/06 10:00:42;;;;;;;4.95;2.58;;;;;;;22.33;75.43;101282.16;4991343;28;20730;-75
2022/09/06 10:03:13;;;;;;;6.25;2.88;;;;;;;22.34;74.12;101283.78;4993740;28;20030;-74
2022/09/06 10:05:40;;;;;;;5.03;2.85;;;;;;;22.38;74.41;101279.31;4983298;28;20114;-69
2022/09/06 10:08:11;;;;;;;8.05;3.05;;;;;;;22.37;73.43;101296.16;4974657;28;20031;-71
2022/09/06 10:10:45;;;;;;;4.75;2.30;;;;;;;22.47;75.50;101313.41;4984467;28;20034;-73
2022/09/06 10:13:18;;;;;;;5.80;3.00;;;;;;;22.51;74.06;101308.13;4993554;28;20026;-72
2022/09/06 10:15:44;;;;;;;8.38;2.90;;;;;;;22.62;75.67;101303.31;4955085;29;20050;-70
2022/09/06 10:18:19;;;;;;;4.28;2.75;;;;;;;22.64;74.40;101312.09;4955122;28;20463;-71
2022/09/06 10:20:59;;;;;;;5.43;3.10;;;;;;;22.70;74.00;101313.66;4969342;28;20471;-70
2022/09/06 10:23:44;;;;;;;3.92;2.55;;;;;;;22.78;73.53;101314.94;4957239;28;20027;-75
2022/09/06 10:26:17;;;;;;;6.10;2.90;;;;;;;22.90;73.30;101311.75;4965106;28;20035;-71
2022/09/06 10:28:44;;;;;;;7.57;3.28;;;;;;;22.86;71.66;101310.69;4973444;28;20080;-70
2022/09/06 10:31:24;;;;;;;9.55;3.60;;;;;;;22.93;72.30;101313.91;4973794;28;20046;-71
2022/09/06 10:34:08;;;;;;;6.47;3.00;;;;;;;23.01;72.70;101300.28;4968873;28;20119;-71
2022/09/06 10:36:35;;;;;;;4.57;3.08;;;;;;;23.08;72.68;101297.13;4973029;28;20062;-72
2022/09/06 10:39:59;;;;;;;4.50;2.80;;;;;;;23.17;72.63;101289.03;4967030;28;20061;-70
2022/09/06 10:42:44;;;;;;;7.53;3.55;;;;;;;23.23;70.11;101300.81;4937011;28;20612;-69
2022/09/06 10:45:15;;;;;;;8.43;3.80;;;;;;;23.19;69.31;101300.63;4950316;28;20067;-70
2022/09/06 10:47:58;;;;;;;;;;;;;;;23.25;69.78;101290.28;4979998;28;20042;-68
2022/09/06 10:50:39;;;;;;;5.53;3.22;;;;;;;23.25;71.14;101298.56;4977566;28;19917;-68
2022/09/06 10:53:19;;;;;;;;;;;;;;;23.30;70.88;101293.00;4977680;28;20030;-68
2022/09/06 10:55:51;;;;;;;6.72;3.65;;;;;;;23.30;68.06;101293.00;4992910;28;20416;-68
2022/09/06 10:58:25;;;;;;;4.93;3.72;;;;;;;23.29;69.07;101285.81;4975316;28;20023;-71
2022/09/06 11:00:53;;;;;;;5.10;3.50;;;;;;;23.30;68.18;101281.94;4957219;28;20027;-69
2022/09/06 11:03:28;;;;;;;6.90;3.30;;;;;;;23.36;68.47;101295.34;4973527;28;20465;-69
2022/09/06 11:06:01;;;;;;;8.98;3.85;;;;;;;23.49;69.25;101299.31;4976917;28;20086;-67
2022/09/06 11:08:48;;;;;;;6.60;3.70;;;;;;;23.53;68.98;101293.97;4977251;28;20030;-69
2022/09/06 11:11:23;;;;;;;9.10;4.00;;;;;;;23.61;68.81;101298.00;4986190;28;20041;-68
2022/09/06 11:13:48;;;;;;;8.50;3.80;;;;;;;23.69;67.16;101300.06;4994725;28;20108;-68
2022/09/06 11:16:38;;;;;;;6.78;3.55;;;;;;;23.71;66.49;101309.69;4998594;28;20478;-68
2022/09/06 11:19:25;;;;;;;7.30;3.10;;;;;;;23.86;67.35;101316.91;4976997;28;20042;-68
2022/09/06 11:22:12;;;;;;;5.30;3.85;;;;;;;23.87;65.40;101315.81;4976458;28;20026;-71
2022/09/06 11:25:07;;;;;;;6.10;3.08;;;;;;;23.91;66.38;101318.75;4984720;28;20054;-68
2022/09/06 11:27:37;;;;;;;11.45;4.00;;;;;;;23.96;65.01;101320.63;4996082;28;20031;-69
2022/09/06 11:30:05;;;;;;;7.28;2.97;;;;;;;24.11;65.52;101316.75;4990781;28;20031;-70
2022/09/06 11:32:42;;;;;;;7.30;3.72;;;;;;;24.14;64.82;101319.75;4976717;28;20144;-69